createdAt,value
2018-09-10T00:00:37.500Z,22.51
2018-09-10T00:03:06.731Z,22.53
2018-09-10T00:05:35.937Z,22.51
2018-09-10T00:08:05.604Z,22.42
2018-09-10T00:10:34.828Z,22.44
2018-09-10T00:13:04.151Z,22.41
2018-09-10T00:15:33.416Z,22.40
2018-09-10T00:18:02.694Z,22.35
2018-09-10T00:20:31.955Z,22.33
2018-09-10T00:23:01.280Z,22.27
2018-09-10T00:25:30.743Z,22.28
2018-09-10T00:28:00.107Z,22.25
2018-09-10T00:30:29.231Z,22.18
2018-09-10T00:32:58.368Z,22.19
2018-09-10T00:35:27.774Z,22.17
2018-09-10T00:37:57.030Z,22.13
2018-09-10T00:40:26.313Z,22.14
2018-09-10T00:42:55.630Z,22.14
2018-09-10T00:45:24.843Z,22.15
2018-09-10T00:47:53.887Z,22.10
2018-09-10T00:50:23.219Z,22.08
2018-09-10T00:52:52.647Z,22.07
2018-09-10T00:55:21.978Z,22.03
2018-09-10T00:57:51.215Z,22.03
2018-09-10T01:00:20.512Z,22.00
2018-09-10T01:02:49.519Z,22.06
2018-09-10T01:05:18.806Z,22.06
2018-09-10T01:07:48.111Z,22.11
2018-09-10T01:10:17.368Z,22.11
2018-09-10T01:12:46.819Z,22.08
2018-09-10T01:15:16.003Z,22.06
2018-09-10T01:17:45.075Z,21.99
2018-09-10T01:20:14.141Z,21.91
2018-09-10T01:22:43.238Z,21.86
2018-09-10T01:25:12.522Z,21.86
2018-09-10T01:27:41.734Z,21.85
2018-09-10T01:30:11.148Z,21.89
2018-09-10T01:32:40.483Z,21.85
2018-09-10T01:35:09.838Z,21.86
2018-09-10T01:37:38.806Z,21.84
2018-09-10T01:40:07.832Z,21.83
2018-09-10T01:42:37.067Z,21.86
2018-09-10T01:45:06.272Z,21.85
2018-09-10T01:47:35.461Z,21.84
2018-09-10T01:50:04.588Z,21.85
2018-09-10T01:52:33.863Z,21.84
2018-09-10T01:55:03.040Z,21.89
2018-09-10T01:57:32.215Z,21.92
2018-09-10T02:00:01.257Z,21.83
2018-09-10T02:02:30.435Z,21.89
2018-09-10T02:04:59.571Z,21.92
2018-09-10T02:07:28.881Z,21.85
2018-09-10T02:09:58.379Z,21.82
2018-09-10T02:12:27.781Z,21.80
2018-09-10T02:14:57.260Z,21.83
2018-09-10T02:17:26.708Z,21.82
2018-09-10T02:19:55.986Z,21.80
2018-09-10T02:22:25.183Z,21.74
2018-09-10T02:24:54.648Z,21.69
2018-09-10T02:27:23.829Z,21.70
2018-09-10T02:29:53.133Z,21.66
2018-09-10T02:32:22.449Z,21.64
2018-09-10T02:34:51.785Z,21.53
2018-09-10T02:37:20.982Z,21.54
2018-09-10T02:39:50.083Z,21.56
2018-09-10T02:42:19.469Z,21.53
2018-09-10T02:44:48.662Z,21.42
2018-09-10T02:47:18.027Z,21.31
2018-09-10T02:49:47.329Z,21.28
2018-09-10T02:52:16.416Z,21.23
2018-09-10T02:54:45.831Z,21.21
2018-09-10T02:57:15.068Z,21.23
2018-09-10T02:59:44.183Z,21.14
2018-09-10T03:02:13.616Z,21.11
2018-09-10T03:04:44.915Z,21.10
2018-09-10T03:07:15.339Z,21.10
2018-09-10T03:09:44.792Z,21.08
2018-09-10T03:12:14.240Z,21.05
2018-09-10T03:14:43.383Z,21.06
2018-09-10T03:17:12.468Z,21.05
2018-09-10T03:19:41.888Z,20.99
2018-09-10T03:22:11.027Z,20.97
2018-09-10T03:24:40.412Z,20.94
2018-09-10T03:27:09.552Z,20.93
2018-09-10T03:29:38.728Z,20.93
2018-09-10T03:32:08.380Z,20.88
2018-09-10T03:34:37.828Z,20.84
2018-09-10T03:37:07.128Z,20.79
2018-09-10T03:39:36.476Z,20.80
2018-09-10T03:42:05.680Z,20.76
2018-09-10T03:44:34.981Z,20.78
2018-09-10T03:47:04.308Z,20.75
2018-09-10T03:49:33.506Z,20.74
2018-09-10T03:52:02.535Z,20.73
2018-09-10T03:54:31.464Z,20.72
2018-09-10T03:57:00.470Z,20.71
2018-09-10T03:59:29.965Z,20.73
2018-09-10T04:01:59.166Z,20.73
2018-09-10T04:04:28.720Z,20.64
2018-09-10T04:06:58.048Z,20.64
2018-09-10T04:09:27.395Z,20.61
2018-09-10T04:11:56.900Z,20.56
2018-09-10T04:14:25.979Z,20.54
2018-09-10T04:16:55.020Z,20.49
2018-09-10T04:19:24.385Z,20.52
2018-09-10T04:21:53.691Z,20.54
2018-09-10T04:24:23.244Z,20.60
2018-09-10T04:26:52.701Z,20.66
2018-09-10T04:29:21.902Z,20.73
2018-09-10T04:31:51.067Z,20.76
2018-09-10T04:34:20.265Z,20.76
2018-09-10T04:36:49.241Z,20.83
2018-09-10T04:39:18.543Z,20.84
2018-09-10T04:41:47.847Z,20.91
2018-09-10T04:44:17.090Z,20.92
2018-09-10T04:46:46.440Z,21.04
2018-09-10T04:49:15.844Z,21.08
2018-09-10T04:51:45.184Z,21.10
2018-09-10T04:54:14.567Z,21.12
2018-09-10T04:56:43.617Z,21.16
2018-09-10T04:59:12.928Z,21.16
2018-09-10T05:01:42.118Z,21.19
2018-09-10T05:04:11.206Z,21.20
2018-09-10T05:06:40.436Z,21.12
2018-09-10T05:09:10.091Z,21.08
2018-09-10T05:11:39.520Z,21.15
2018-09-10T05:14:09.128Z,21.12
2018-09-10T05:31:01.049Z,21.82
2018-09-10T05:33:30.445Z,21.78
2018-09-10T05:35:59.751Z,21.76
2018-09-10T05:38:29.204Z,21.87
2018-09-10T05:40:58.467Z,22.02
2018-09-10T05:43:27.748Z,22.07
2018-09-10T05:45:56.896Z,22.09
2018-09-10T05:48:26.126Z,22.05
2018-09-10T05:50:55.489Z,22.07
2018-09-10T05:53:24.708Z,22.06
2018-09-10T05:55:53.941Z,22.10
2018-09-10T05:58:23.071Z,22.13
2018-09-10T06:00:52.485Z,22.13
2018-09-10T06:03:21.615Z,22.16
2018-09-10T06:05:50.982Z,22.15
2018-09-10T06:08:20.323Z,22.24
2018-09-10T06:10:49.776Z,22.22
2018-09-10T06:13:18.924Z,22.31
2018-09-10T06:15:48.348Z,22.40
2018-09-10T06:18:17.317Z,22.32
2018-09-10T06:20:46.784Z,22.24
2018-09-10T06:23:16.184Z,22.19
2018-09-10T06:25:45.592Z,22.22
2018-09-10T06:28:14.828Z,22.28
2018-09-10T06:30:44.127Z,22.29
2018-09-10T06:33:13.247Z,22.34
2018-09-10T06:35:42.467Z,22.33
2018-09-10T06:38:11.681Z,22.36
2018-09-10T06:40:41.117Z,22.39
2018-09-10T06:43:10.347Z,22.46
2018-09-10T06:45:39.509Z,22.57
2018-09-10T06:48:08.715Z,22.69
2018-09-10T06:50:37.968Z,22.81
2018-09-10T06:53:07.199Z,22.86
2018-09-10T06:55:36.459Z,22.91
2018-09-10T06:58:06.061Z,22.77
2018-09-10T07:00:35.339Z,22.75
2018-09-10T07:03:04.751Z,22.71
2018-09-10T07:05:33.945Z,22.72
2018-09-10T07:08:03.449Z,22.72
2018-09-10T07:10:32.843Z,22.57
2018-09-10T07:13:02.233Z,22.51
2018-09-10T07:15:31.843Z,22.52
2018-09-10T07:18:01.215Z,22.63
2018-09-10T07:20:30.171Z,22.78
2018-09-10T07:22:59.453Z,22.87
2018-09-10T07:25:28.803Z,22.96
2018-09-10T07:27:58.006Z,23.16
2018-09-10T07:30:27.340Z,23.30
2018-09-10T07:32:56.664Z,23.35
2018-09-10T07:35:25.937Z,23.38
2018-09-10T07:37:55.207Z,23.50
2018-09-10T07:40:24.383Z,23.67
2018-09-10T07:42:53.211Z,23.92
2018-09-10T07:45:22.276Z,23.96
2018-09-10T07:47:51.640Z,24.10
2018-09-10T07:50:20.994Z,24.39
2018-09-10T07:52:50.462Z,24.37
2018-09-10T07:55:19.700Z,24.22
2018-09-10T07:57:49.199Z,24.14
2018-09-10T08:00:18.518Z,24.11
2018-09-10T08:02:47.950Z,24.10
2018-09-10T08:05:17.316Z,24.10
2018-09-10T08:07:46.384Z,24.13
2018-09-10T08:10:15.693Z,24.14
2018-09-10T08:12:44.876Z,24.27
2018-09-10T08:15:14.135Z,24.48
2018-09-10T08:17:43.438Z,24.67
2018-09-10T08:20:12.915Z,24.82
2018-09-10T08:22:42.280Z,24.95
2018-09-10T08:25:11.701Z,24.93
2018-09-10T08:27:40.747Z,25.00
2018-09-10T08:30:10.156Z,25.10
2018-09-10T08:32:39.243Z,25.12
2018-09-10T08:35:08.632Z,25.16
2018-09-10T08:37:37.976Z,25.07
2018-09-10T08:40:07.139Z,25.21
2018-09-10T08:42:36.364Z,25.73
2018-09-10T08:45:05.965Z,26.20
2018-09-10T08:47:35.526Z,26.66
2018-09-10T08:50:04.885Z,26.92
2018-09-10T08:52:33.888Z,27.23
2018-09-10T08:55:03.355Z,27.16
2018-09-10T08:57:32.447Z,27.09
2018-09-10T09:00:01.641Z,27.01
2018-09-10T09:02:31.125Z,27.18
2018-09-10T09:05:00.661Z,27.43
2018-09-10T09:07:30.120Z,27.63
2018-09-10T09:09:59.516Z,27.55
2018-09-10T09:12:28.511Z,27.72
2018-09-10T09:14:57.940Z,27.58
2018-09-10T09:17:27.179Z,27.47
2018-09-10T09:19:56.616Z,27.40
2018-09-10T09:22:26.072Z,27.50
2018-09-10T09:24:55.417Z,27.77
2018-09-10T09:27:24.648Z,28.12
2018-09-10T09:29:53.863Z,28.55
2018-09-10T09:32:22.853Z,29.00
2018-09-10T09:34:56.707Z,28.83
2018-09-10T09:37:31.243Z,29.14
2018-09-10T09:40:05.684Z,28.79
2018-09-10T09:42:39.804Z,28.63
2018-09-10T09:45:13.996Z,29.57
2018-09-10T09:47:43.311Z,30.15
2018-09-10T09:50:12.640Z,30.59
2018-09-10T09:52:41.996Z,30.24
2018-09-10T09:55:10.985Z,29.61
2018-09-10T09:57:40.171Z,29.03
2018-09-10T10:00:14.211Z,29.00
2018-09-10T10:02:48.307Z,29.83
2018-09-10T10:05:17.516Z,31.05
2018-09-10T10:07:46.440Z,32.31
2018-09-10T10:10:15.791Z,33.43
2018-09-10T10:12:45.098Z,34.84
2018-09-10T10:15:14.516Z,35.87
2018-09-10T10:17:43.933Z,36.77
2018-09-10T10:20:13.316Z,37.39
2018-09-10T10:22:42.499Z,36.90
2018-09-10T10:25:11.815Z,35.67
2018-09-10T10:27:41.186Z,34.44
2018-09-10T10:30:10.479Z,34.50
2018-09-10T10:32:39.712Z,36.33
2018-09-10T10:35:08.921Z,38.33
2018-09-10T10:37:38.003Z,39.42
2018-09-10T10:40:07.303Z,40.64
2018-09-10T10:42:36.615Z,40.55
2018-09-10T10:45:05.904Z,41.24
2018-09-10T10:47:35.007Z,40.38
2018-09-10T10:50:04.379Z,41.05
2018-09-10T10:52:33.758Z,42.04
2018-09-10T10:55:03.029Z,41.84
2018-09-10T10:57:32.256Z,42.66
2018-09-10T11:00:01.215Z,43.86
2018-09-10T11:02:30.384Z,44.18
2018-09-10T11:04:59.544Z,42.14
2018-09-10T11:07:28.691Z,42.40
2018-09-10T11:09:58.040Z,43.69
2018-09-10T11:12:27.367Z,44.53
2018-09-10T11:14:56.580Z,44.16
2018-09-10T11:17:25.631Z,42.66
2018-09-10T11:19:54.905Z,41.80
2018-09-10T11:22:24.100Z,42.58
2018-09-10T11:24:53.527Z,40.23
2018-09-10T11:27:22.868Z,40.66
2018-09-10T11:29:51.998Z,40.43
2018-09-10T11:32:21.334Z,39.06
2018-09-10T11:34:50.303Z,37.93
2018-09-10T11:37:19.803Z,39.08
2018-09-10T11:39:49.104Z,40.26
2018-09-10T11:42:18.291Z,40.39
2018-09-10T11:44:47.634Z,39.01
2018-09-10T11:47:16.758Z,37.22
2018-09-10T11:49:46.139Z,36.07
2018-09-10T11:52:15.539Z,35.62
2018-09-10T11:54:44.692Z,35.20
2018-09-10T11:57:13.833Z,34.71
2018-09-10T11:59:42.827Z,34.75
2018-09-10T12:02:12.219Z,35.17
2018-09-10T12:04:41.384Z,35.94
2018-09-10T12:07:10.881Z,35.34
2018-09-10T12:09:40.235Z,34.86
2018-09-10T12:12:09.567Z,36.26
2018-09-10T12:14:38.835Z,38.35
2018-09-10T12:17:08.139Z,40.12
2018-09-10T12:19:37.179Z,41.63
2018-09-10T12:22:06.383Z,42.57
2018-09-10T12:24:35.500Z,43.42
2018-09-10T12:27:04.692Z,44.34
2018-09-10T12:29:34.160Z,45.08
2018-09-10T12:32:03.525Z,45.51
2018-09-10T12:34:32.796Z,46.18
2018-09-10T12:37:02.104Z,46.80
2018-09-10T12:39:31.222Z,46.92
2018-09-10T12:42:00.538Z,47.19
2018-09-10T12:44:29.941Z,47.32
2018-09-10T12:46:59.212Z,46.95
2018-09-10T12:49:28.628Z,46.62
2018-09-10T12:51:57.857Z,45.31
2018-09-10T12:54:27.239Z,43.36
2018-09-10T12:56:56.460Z,41.87
2018-09-10T12:59:25.902Z,41.10
2018-09-10T13:01:55.032Z,41.10
2018-09-10T13:04:24.188Z,41.42
2018-09-10T13:06:53.395Z,40.48
2018-09-10T13:09:22.607Z,40.02
2018-09-10T13:11:52.047Z,40.39
2018-09-10T13:14:21.356Z,40.57
2018-09-10T13:16:50.280Z,40.95
2018-09-10T13:19:19.201Z,41.11
2018-09-10T13:21:48.133Z,40.97
2018-09-10T13:24:17.455Z,40.94
2018-09-10T13:26:46.804Z,40.68
2018-09-10T13:29:15.993Z,40.20
2018-09-10T13:31:45.360Z,39.74
2018-09-10T13:34:14.599Z,38.43
2018-09-10T13:36:44.019Z,37.26
2018-09-10T13:39:13.564Z,36.59
2018-09-10T13:41:42.736Z,35.97
2018-09-10T13:44:12.100Z,35.42
2018-09-10T13:46:41.278Z,34.87
2018-09-10T13:49:10.392Z,34.27
2018-09-10T13:51:39.756Z,33.77
2018-09-10T13:54:09.015Z,33.52
2018-09-10T13:56:38.296Z,33.31
2018-09-10T13:59:07.742Z,33.19
2018-09-10T14:01:36.853Z,32.95
2018-09-10T14:04:06.136Z,32.60
2018-09-10T14:06:35.506Z,32.29
2018-09-10T14:09:06.048Z,32.01
2018-09-10T14:11:35.591Z,31.74
2018-09-10T14:14:04.671Z,31.54
2018-09-10T14:16:33.741Z,31.32
2018-09-10T14:21:41.829Z,30.81
2018-09-10T14:24:10.936Z,30.67
2018-09-10T14:26:40.227Z,30.63
2018-09-10T14:29:09.683Z,30.63
2018-09-10T14:31:39.139Z,30.67
2018-09-10T14:34:08.510Z,30.54
2018-09-10T14:36:37.787Z,30.42
2018-09-10T14:39:08.576Z,30.33
2018-09-10T14:41:37.814Z,30.22
2018-09-10T14:44:07.065Z,30.09
2018-09-10T14:46:36.028Z,29.99
2018-09-10T14:49:05.460Z,29.95
2018-09-10T14:51:34.861Z,29.97
2018-09-10T14:54:04.072Z,29.97
2018-09-10T14:56:33.460Z,29.99
2018-09-10T14:59:02.479Z,29.90
2018-09-10T15:01:31.525Z,29.95
2018-09-10T15:04:00.869Z,29.92
2018-09-10T15:06:30.112Z,29.81
2018-09-10T15:08:59.301Z,29.66
2018-09-10T15:11:28.594Z,29.53
2018-09-10T15:13:58.111Z,29.39
2018-09-10T15:16:27.591Z,29.25
2018-09-10T15:18:57.066Z,29.16
2018-09-10T15:21:26.443Z,29.05
2018-09-10T15:23:55.409Z,28.93
2018-09-10T15:26:24.844Z,28.81
2018-09-10T15:28:54.085Z,28.64
2018-09-10T15:31:23.231Z,28.53
2018-09-10T15:33:52.615Z,28.41
2018-09-10T15:36:22.085Z,28.38
2018-09-10T15:38:51.423Z,28.30
2018-09-10T15:41:20.896Z,28.17
2018-09-10T15:43:49.864Z,28.18
2018-09-10T15:46:18.980Z,28.04
2018-09-10T15:48:48.025Z,27.90
2018-09-10T15:51:17.423Z,27.77
2018-09-10T15:53:46.412Z,27.72
2018-09-10T15:56:15.638Z,27.64
2018-09-10T15:58:44.853Z,27.57
2018-09-10T16:01:14.189Z,27.45
2018-09-10T16:03:43.746Z,27.28
2018-09-10T16:06:13.033Z,27.19
2018-09-10T16:08:42.212Z,27.07
2018-09-10T16:11:11.580Z,26.94
2018-09-10T16:13:40.707Z,26.75
2018-09-10T16:16:10.028Z,26.69
2018-09-10T16:18:39.409Z,26.56
2018-09-10T16:21:08.324Z,26.42
2018-09-10T16:23:37.267Z,26.26
2018-09-10T16:26:06.627Z,26.08
2018-09-10T16:28:35.727Z,25.88
2018-09-10T16:31:04.935Z,25.65
2018-09-10T16:33:34.375Z,25.47
2018-09-10T16:36:03.822Z,25.30
2018-09-10T16:38:33.034Z,25.19
2018-09-10T16:41:02.159Z,25.09
2018-09-10T16:43:31.564Z,24.83
2018-09-10T16:46:00.523Z,24.86
2018-09-10T16:48:29.775Z,24.75
2018-09-10T16:50:59.070Z,24.66
2018-09-10T16:53:28.393Z,24.35
2018-09-10T16:55:57.711Z,24.35
2018-09-10T16:58:27.213Z,24.32
2018-09-10T17:00:56.411Z,24.27
2018-09-10T17:03:25.483Z,24.41
2018-09-10T17:05:54.579Z,24.30
2018-09-10T17:08:23.628Z,24.26
2018-09-10T17:10:52.491Z,24.06
2018-09-10T17:13:21.651Z,24.11
2018-09-10T17:15:51.027Z,23.98
2018-09-10T17:18:20.263Z,23.88
2018-09-10T17:20:49.518Z,23.55
2018-09-10T17:23:18.971Z,23.49
2018-09-10T17:25:52.085Z,23.63
2018-09-10T17:28:21.872Z,23.67
2018-09-10T17:30:51.679Z,23.64
2018-09-10T17:33:20.988Z,23.57
2018-09-10T17:35:50.354Z,23.45
2018-09-10T17:38:19.315Z,23.55
2018-09-10T17:40:48.677Z,23.68
2018-09-10T17:43:18.032Z,23.71
2018-09-10T17:45:47.367Z,23.64
2018-09-10T17:48:16.679Z,23.65
2018-09-10T17:50:45.931Z,23.62
2018-09-10T17:53:15.267Z,23.72
2018-09-10T17:55:44.504Z,23.71
2018-09-10T17:58:13.431Z,23.68
2018-09-10T18:00:46.105Z,23.59
2018-09-10T18:03:15.518Z,23.56
2018-09-10T18:05:45.215Z,23.73
2018-09-10T18:08:14.811Z,23.56
2018-09-10T18:10:44.289Z,23.56
2018-09-10T18:13:13.655Z,23.65
2018-09-10T18:15:42.949Z,23.69
2018-09-10T18:18:12.277Z,23.72
2018-09-10T18:20:41.620Z,23.67
2018-09-10T18:23:10.986Z,23.77
2018-09-10T18:25:39.984Z,23.74
2018-09-10T18:28:09.194Z,23.77
2018-09-10T18:30:39.767Z,23.80
2018-09-10T18:33:10.295Z,23.75
2018-09-10T18:35:39.608Z,23.76
2018-09-10T18:38:08.804Z,23.85
2018-09-10T18:40:38.089Z,23.74
2018-09-10T18:43:07.184Z,23.79
2018-09-10T18:45:36.427Z,23.80
2018-09-10T18:48:05.408Z,23.88
2018-09-10T18:50:34.628Z,23.82
2018-09-10T18:53:03.964Z,23.91
2018-09-10T18:55:33.207Z,24.00
2018-09-10T18:58:02.491Z,24.07
2018-09-10T19:00:31.775Z,24.19
2018-09-10T19:03:00.920Z,24.20
2018-09-10T19:05:30.280Z,24.18
2018-09-10T19:07:59.347Z,24.28
2018-09-10T19:10:28.303Z,24.29
2018-09-10T19:12:57.547Z,24.24
2018-09-10T19:15:26.716Z,24.26
2018-09-10T19:17:56.029Z,24.23
2018-09-10T19:20:25.463Z,24.26
2018-09-10T19:22:54.885Z,24.27
2018-09-10T19:25:24.188Z,24.21
2018-09-10T19:27:53.413Z,24.18
2018-09-10T19:30:22.704Z,24.17
2018-09-10T19:32:52.056Z,24.12
2018-09-10T19:35:21.322Z,24.07
2018-09-10T19:37:50.619Z,24.02
2018-09-10T19:40:19.667Z,23.96
2018-09-10T19:42:49.093Z,23.89
2018-09-10T19:45:18.491Z,23.90
2018-09-10T19:47:47.876Z,23.87
2018-09-10T19:50:17.392Z,23.88
2018-09-10T19:52:46.832Z,23.86
2018-09-10T19:55:16.185Z,23.86
2018-09-10T19:57:45.499Z,23.88
2018-09-10T20:00:14.833Z,23.88
2018-09-10T20:02:44.060Z,23.88
2018-09-10T20:05:13.044Z,23.81
2018-09-10T20:07:42.043Z,23.68
2018-09-10T20:10:11.077Z,23.63
2018-09-10T20:12:40.305Z,23.61
2018-09-10T20:15:09.404Z,23.60
2018-09-10T20:17:38.683Z,23.55
2018-09-10T20:20:08.392Z,23.55
2018-09-10T20:22:37.768Z,23.51
2018-09-10T20:25:07.316Z,23.47
2018-09-10T20:27:36.693Z,23.53
2018-09-10T20:30:06.400Z,23.48
2018-09-10T20:32:35.794Z,23.49
2018-09-10T20:35:05.078Z,23.50
2018-09-10T20:37:34.228Z,23.49
2018-09-10T20:40:03.587Z,23.55
2018-09-10T20:42:32.988Z,23.54
2018-09-10T20:45:02.299Z,23.50
2018-09-10T20:47:31.384Z,23.46
2018-09-10T20:50:00.372Z,23.43
2018-09-10T20:52:29.760Z,23.40
2018-09-10T20:54:59.015Z,23.41
2018-09-10T20:57:28.361Z,23.44
2018-09-10T20:59:57.826Z,23.45
2018-09-10T21:02:26.905Z,23.45
2018-09-10T21:04:56.021Z,23.44
2018-09-10T21:07:25.110Z,23.44
2018-09-10T21:09:54.387Z,23.47
2018-09-10T21:12:23.486Z,23.47
2018-09-10T21:14:52.849Z,23.45
2018-09-10T21:17:22.191Z,23.46
2018-09-10T21:19:51.438Z,23.51
2018-09-10T21:22:20.738Z,23.48
2018-09-10T21:24:50.259Z,23.47
2018-09-10T21:27:19.228Z,23.49
2018-09-10T21:29:48.377Z,23.51
2018-09-10T21:32:17.767Z,23.48
2018-09-10T21:34:46.778Z,23.48
2018-09-10T21:37:16.227Z,23.51
2018-09-10T21:39:45.588Z,23.44
2018-09-10T21:42:14.823Z,23.40
2018-09-10T21:44:44.009Z,23.32
2018-09-10T21:47:13.520Z,23.21
2018-09-10T21:49:42.981Z,23.20
2018-09-10T21:52:12.315Z,23.14
2018-09-10T21:54:41.469Z,23.13
2018-09-10T21:57:10.760Z,23.13
2018-09-10T21:59:40.024Z,23.13
2018-09-10T22:02:09.275Z,23.09
2018-09-10T22:04:38.570Z,23.07
2018-09-10T22:07:07.791Z,23.06
2018-09-10T22:09:37.253Z,23.04
2018-09-10T22:12:06.367Z,23.05
2018-09-10T22:14:35.864Z,23.03
2018-09-10T22:17:05.076Z,22.99
2018-09-10T22:19:34.364Z,22.98
2018-09-10T22:22:03.662Z,22.94
2018-09-10T22:24:32.997Z,22.90
2018-09-10T22:27:02.260Z,22.93
2018-09-10T22:29:31.684Z,22.91
2018-09-10T22:32:01.056Z,22.90
2018-09-10T22:34:30.411Z,22.88
2018-09-10T22:36:59.632Z,22.81
2018-09-10T22:39:28.893Z,22.78
2018-09-10T22:41:58.167Z,22.77
2018-09-10T22:44:28.516Z,22.79
2018-09-10T22:46:58.343Z,22.78
2018-09-10T22:49:27.632Z,22.78
2018-09-10T22:51:56.885Z,22.85
2018-09-10T22:54:26.250Z,22.83
2018-09-10T22:56:55.230Z,22.79
2018-09-10T22:59:24.347Z,22.80
2018-09-10T23:01:53.626Z,22.73
2018-09-10T23:04:22.876Z,22.68
2018-09-10T23:06:51.836Z,22.68
2018-09-10T23:09:20.992Z,22.63
2018-09-10T23:11:50.108Z,22.61
2018-09-10T23:14:19.243Z,22.51
2018-09-10T23:16:48.247Z,22.53
2018-09-10T23:19:17.487Z,22.54
2018-09-10T23:21:46.984Z,22.50
2018-09-10T23:24:15.882Z,22.52
2018-09-10T23:26:45.377Z,22.53
2018-09-10T23:29:14.206Z,22.46
2018-09-10T23:31:43.565Z,22.39
2018-09-10T23:34:12.836Z,22.39
2018-09-10T23:36:41.841Z,22.42
2018-09-10T23:39:10.928Z,22.37
2018-09-10T23:41:40.239Z,22.38
2018-09-10T23:44:09.759Z,22.34
2018-09-10T23:46:39.013Z,22.31
2018-09-10T23:49:08.095Z,22.33
2018-09-10T23:51:37.114Z,22.28
2018-09-10T23:54:06.308Z,22.26
2018-09-10T23:56:35.626Z,22.28
2018-09-10T23:59:04.989Z,22.21
